sensor_id;sensor_type;location;lat;lon;timestamp;pressure;altitude;pressure_sealevel;temperature;humidity
6942;BME280;3510;43.200;27.920;2022-09-28T00:01:41;99847.91;;;24.94;53.35
6942;BME280;3510;43.200;27.920;2022-09-28T00:04:12;99854.00;;;25.01;53.25
6942;BME280;3510;43.200;27.920;2022-09-28T00:06:40;99844.00;;;25.31;52.23
6942;BME280;3510;43.200;27.920;2022-09-28T00:09:07;99845.16;;;24.74;53.77
6942;BME280;3510;43.200;27.920;2022-09-28T00:11:33;99848.09;;;23.76;56.29
6942;BME280;3510;43.200;27.920;2022-09-28T00:14:00;99826.53;;;24.25;54.93
6942;BME280;3510;43.200;27.920;2022-09-28T00:16:29;99830.41;;;24.61;53.96
6942;BME280;3510;43.200;27.920;2022-09-28T00:18:55;99830.38;;;24.56;54.29
6942;BME280;3510;43.200;27.920;2022-09-28T00:21:23;99844.59;;;25.06;52.83
6942;BME280;3510;43.200;27.920;2022-09-28T00:23:52;99845.78;;;25.39;51.91
6942;BME280;3510;43.200;27.920;2022-09-28T00:26:39;99844.56;;;25.01;53.22
6942;BME280;3510;43.200;27.920;2022-09-28T00:29:08;99845.16;;;24.74;53.83
6942;BME280;3510;43.200;27.920;2022-09-28T00:31:39;99847.00;;;24.87;53.60
6942;BME280;3510;43.200;27.920;2022-09-28T00:34:06;99848.88;;;24.29;55.06
6942;BME280;3510;43.200;27.920;2022-09-28T00:36:33;99854.13;;;24.37;54.99
6942;BME280;3510;43.200;27.920;2022-09-28T00:39:03;99858.53;;;24.46;54.76
6942;BME280;3510;43.200;27.920;2022-09-28T00:41:30;99854.19;;;24.43;55.45
6942;BME280;3510;43.200;27.920;2022-09-28T00:46:38;99855.66;;;24.93;54.40
6942;BME280;3510;43.200;27.920;2022-09-28T00:49:06;99865.00;;;24.87;54.24
6942;BME280;3510;43.200;27.920;2022-09-28T00:51:35;99863.47;;;25.03;53.92
6942;BME280;3510;43.200;27.920;2022-09-28T00:54:05;99865.53;;;24.56;54.97
6942;BME280;3510;43.200;27.920;2022-09-28T00:56:33;99871.97;;;24.28;56.07
6942;BME280;3510;43.200;27.920;2022-09-28T00:59:02;99866.03;;;24.32;56.13
6942;BME280;3510;43.200;27.920;2022-09-28T01:01:29;99857.53;;;24.37;56.18
6942;BME280;3510;43.200;27.920;2022-09-28T01:03:56;99862.31;;;24.10;56.74
6942;BME280;3510;43.200;27.920;2022-09-28T01:06:26;99863.91;;;24.00;56.57
6942;BME280;3510;43.200;27.920;2022-09-28T01:08:56;99862.03;;;23.90;57.33
6942;BME280;3510;43.200;27.920;2022-09-28T01:11:25;99868.22;;;23.50;58.41
6942;BME280;3510;43.200;27.920;2022-09-28T01:13:53;99867.22;;;23.40;59.02
6942;BME280;3510;43.200;27.920;2022-09-28T01:16:23;99866.34;;;23.93;57.70
6942;BME280;3510;43.200;27.920;2022-09-28T01:18:56;99862.13;;;23.96;57.20
6942;BME280;3510;43.200;27.920;2022-09-28T01:21:25;99867.75;;;23.72;58.12
6942;BME280;3510;43.200;27.920;2022-09-28T01:24:06;99861.06;;;23.83;57.87
6942;BME280;3510;43.200;27.920;2022-09-28T01:26:45;99868.94;;;23.94;57.42
6942;BME280;3510;43.200;27.920;2022-09-28T01:29:18;99861.00;;;23.77;57.75
6942;BME280;3510;43.200;27.920;2022-09-28T01:31:48;99854.31;;;23.91;56.96
6942;BME280;3510;43.200;27.920;2022-09-28T01:34:17;99861.69;;;23.67;57.62
6942;BME280;3510;43.200;27.920;2022-09-28T01:36:47;99857.44;;;24.31;55.65
6942;BME280;3510;43.200;27.920;2022-09-28T01:39:15;99863.00;;;23.97;56.63
6942;BME280;3510;43.200;27.920;2022-09-28T01:41:44;99859.91;;;24.22;55.75
6942;BME280;3510;43.200;27.920;2022-09-28T01:44:15;99863.09;;;24.06;55.85
6942;BME280;3510;43.200;27.920;2022-09-28T01:46:44;99855.56;;;23.62;57.62
6942;BME280;3510;43.200;27.920;2022-09-28T01:49:13;99863.31;;;24.21;56.18
6942;BME280;3510;43.200;27.920;2022-09-28T01:51:43;99859.41;;;23.85;56.42
6942;BME280;3510;43.200;27.920;2022-09-28T01:54:14;99861.16;;;23.88;56.71
6942;BME280;3510;43.200;27.920;2022-09-28T01:56:43;99855.22;;;23.95;56.41
6942;BME280;3510;43.200;27.920;2022-09-28T01:59:12;99848.97;;;23.76;56.79
6942;BME280;3510;43.200;27.920;2022-09-28T02:01:44;99856.59;;;23.70;57.04
6942;BME280;3510;43.200;27.920;2022-09-28T02:04:14;99854.75;;;23.13;58.00
6942;BME280;3510;43.200;27.920;2022-09-28T02:06:42;99848.25;;;23.33;57.43
6942;BME280;3510;43.200;27.920;2022-09-28T02:09:11;99843.44;;;23.52;56.62
6942;BME280;3510;43.200;27.920;2022-09-28T02:11:42;99848.03;;;23.21;57.80
6942;BME280;3510;43.200;27.920;2022-09-28T02:14:11;99844.00;;;23.35;57.15
6942;BME280;3510;43.200;27.920;2022-09-28T02:16:42;99836.06;;;23.72;56.08
6942;BME280;3510;43.200;27.920;2022-09-28T02:19:10;99841.47;;;23.88;55.43
6942;BME280;3510;43.200;27.920;2022-09-28T02:21:39;99847.41;;;23.84;55.21
6942;BME280;3510;43.200;27.920;2022-09-28T02:24:09;99848.16;;;23.79;55.40
6942;BME280;3510;43.200;27.920;2022-09-28T02:26:39;99851.47;;;23.70;55.42
6942;BME280;3510;43.200;27.920;2022-09-28T02:29:07;99852.16;;;23.63;55.85
6942;BME280;3510;43.200;27.920;2022-09-28T02:31:33;99852.72;;;23.43;56.25
6942;BME280;3510;43.200;27.920;2022-09-28T02:34:02;99848.94;;;23.22;56.58
6942;BME280;3510;43.200;27.920;2022-09-28T02:36:29;99862.94;;;23.42;56.48
6942;BME280;3510;43.200;27.920;2022-09-28T02:38:56;99858.69;;;23.42;57.22
6942;BME280;3510;43.200;27.920;2022-09-28T02:41:30;99856.84;;;23.35;56.75
6942;BME280;3510;43.200;27.920;2022-09-28T02:44:02;99852.09;;;23.07;57.86
6942;BME280;3510;43.200;27.920;2022-09-28T02:46:34;99859.34;;;23.31;57.18
6942;BME280;3510;43.200;27.920;2022-09-28T02:49:10;99852.75;;;22.97;58.42
6942;BME280;3510;43.200;27.920;2022-09-28T02:51:43;99860.06;;;22.78;59.20
6942;BME280;3510;43.200;27.920;2022-09-28T02:54:16;99860.13;;;22.83;58.92
6942;BME280;3510;43.200;27.920;2022-09-28T02:56:51;99854.81;;;23.16;58.33
6942;BME280;3510;43.200;27.920;2022-09-28T02:59:22;99860.13;;;23.25;58.03
6942;BME280;3510;43.200;27.920;2022-09-28T03:01:59;99866.69;;;22.67;59.94
6942;BME280;3510;43.200;27.920;2022-09-28T03:04:32;99860.47;;;22.56;60.10
6942;BME280;3510;43.200;27.920;2022-09-28T03:06:59;99859.22;;;22.37;60.39
6942;BME280;3510;43.200;27.920;2022-09-28T03:09:31;99869.03;;;22.15;61.23
6942;BME280;3510;43.200;27.920;2022-09-28T03:11:59;99867.63;;;22.30;60.91
6942;BME280;3510;43.200;27.920;2022-09-28T03:14:29;99865.34;;;22.06;61.53
6942;BME280;3510;43.200;27.920;2022-09-28T03:16:55;99868.50;;;22.30;60.27
6942;BME280;3510;43.200;27.920;2022-09-28T03:19:23;99862.88;;;22.48;59.95
6942;BME280;3510;43.200;27.920;2022-09-28T03:21:51;99866.44;;;22.55;59.46
6942;BME280;3510;43.200;27.920;2022-09-28T03:24:18;99867.19;;;22.51;59.25
6942;BME280;3510;43.200;27.920;2022-09-28T03:26:45;99875.72;;;22.50;59.10
6942;BME280;3510;43.200;27.920;2022-09-28T03:29:11;99877.97;;;22.75;58.26
6942;BME280;3510;43.200;27.920;2022-09-28T03:31:38;99878.75;;;23.15;56.87
6942;BME280;3510;43.200;27.920;2022-09-28T03:34:05;99885.47;;;23.10;56.90
6942;BME280;3510;43.200;27.920;2022-09-28T03:36:31;99889.75;;;23.09;56.59
6942;BME280;3510;43.200;27.920;2022-09-28T03:38:59;99890.28;;;23.38;55.74
6942;BME280;3510;43.200;27.920;2022-09-28T03:41:26;99890.28;;;22.91;57.25
6942;BME280;3510;43.200;27.920;2022-09-28T03:43:53;99896.22;;;22.48;58.70
6942;BME280;3510;43.200;27.920;2022-09-28T03:46:20;99883.34;;;22.45;58.83
6942;BME280;3510;43.200;27.920;2022-09-28T03:48:46;99886.41;;;22.69;58.24
6942;BME280;3510;43.200;27.920;2022-09-28T03:51:13;99896.16;;;22.46;58.88
6942;BME280;3510;43.200;27.920;2022-09-28T03:53:40;99892.78;;;22.90;57.41
6942;BME280;3510;43.200;27.920;2022-09-28T03:56:11;99891.25;;;22.97;57.18
6942;BME280;3510;43.200;27.920;2022-09-28T03:58:38;99887.28;;;23.14;56.43
6942;BME280;3510;43.200;27.920;2022-09-28T04:01:05;99888.56;;;23.37;56.06
6942;BME280;3510;43.200;27.920;2022-09-28T04:03:32;99888.22;;;23.19;56.43
6942;BME280;3510;43.200;27.920;2022-09-28T04:05:59;99898.31;;;22.66;58.10
6942;BME280;3510;43.200;27.920;2022-09-28T04:08:26;99885.63;;;22.74;58.16
6942;BME280;3510;43.200;27.920;2022-09-28T04:10:54;99886.91;;;22.53;58.59
6942;BME280;3510;43.200;27.920;2022-09-28T04:13:22;99884.94;;;23.26;56.60
6942;BME280;3510;43.200;27.920;2022-09-28T04:15:53;99883.50;;;22.95;57.04
6942;BME280;3510;43.200;27.920;2022-09-28T04:18:20;99882.72;;;22.57;58.04
6942;BME280;3510;43.200;27.920;2022-09-28T04:20:47;99880.75;;;22.87;57.42
6942;BME280;3510;43.200;27.920;2022-09-28T04:23:23;99888.63;;;22.95;57.20
6942;BME280;3510;43.200;27.920;2022-09-28T04:25:50;99887.34;;;22.75;58.23
6942;BME280;3510;43.200;27.920;2022-09-28T04:28:17;99884.09;;;22.83;58.05
6942;BME280;3510;43.200;27.920;2022-09-28T04:31:03;99890.72;;;23.14;57.54
6942;BME280;3510;43.200;27.920;2022-09-28T04:33:33;99895.81;;;23.13;57.67
6942;BME280;3510;43.200;27.920;2022-09-28T04:36:00;99898.63;;;23.25;57.08
6942;BME280;3510;43.200;27.920;2022-09-28T04:38:27;99912.34;;;23.27;57.31
6942;BME280;3510;43.200;27.920;2022-09-28T04:40:54;99906.78;;;23.04;57.20
6942;BME280;3510;43.200;27.920;2022-09-28T04:43:20;99914.38;;;23.45;56.63
6942;BME280;3510;43.200;27.920;2022-09-28T04:45:47;99923.31;;;23.18;57.36
6942;BME280;3510;43.200;27.920;2022-09-28T04:48:15;99911.81;;;23.47;56.48
6942;BME280;3510;43.200;27.920;2022-09-28T04:50:42;99912.72;;;23.49;56.46
6942;BME280;3510;43.200;27.920;2022-09-28T04:53:08;99921.75;;;23.28;56.90
6942;BME280;3510;43.200;27.920;2022-09-28T04:55:35;99920.09;;;22.86;58.28
6942;BME280;3510;43.200;27.920;2022-09-28T04:58:02;99924.34;;;22.84;57.92
6942;BME280;3510;43.200;27.920;2022-09-28T05:00:29;99929.66;;;22.53;59.12
6942;BME280;3510;43.200;27.920;2022-09-28T05:03:00;99939.38;;;22.69;58.83
6942;BME280;3510;43.200;27.920;2022-09-28T05:05:28;99924.72;;;23.03;57.75
6942;BME280;3510;43.200;27.920;2022-09-28T05:07:56;99940.59;;;23.27;57.32
6942;BME280;3510;43.200;27.920;2022-09-28T05:10:22;99936.91;;;23.60;56.58
6942;BME280;3510;43.200;27.920;2022-09-28T05:12:49;99932.69;;;23.16;57.25
6942;BME280;3510;43.200;27.920;2022-09-28T05:15:16;99947.06;;;23.08;57.24
6942;BME280;3510;43.200;27.920;2022-09-28T05:17:42;99944.66;;;23.17;57.70
6942;BME280;3510;43.200;27.920;2022-09-28T05:20:09;99944.59;;;23.60;56.34
6942;BME280;3510;43.200;27.920;2022-09-28T05:22:37;99952.53;;;23.71;55.86
6942;BME280;3510;43.200;27.920;2022-09-28T05:25:04;99955.41;;;23.42;56.49
6942;BME280;3510;43.200;27.920;2022-09-28T05:27:31;99950.16;;;23.83;55.91
6942;BME280;3510;43.200;27.920;2022-09-28T05:29:58;99953.00;;;24.00;54.97
6942;BME280;3510;43.200;27.920;2022-09-28T05:32:24;99952.78;;;23.87;55.47
6942;BME280;3510;43.200;27.920;2022-09-28T05:34:51;99965.13;;;23.58;56.04
6942;BME280;3510;43.200;27.920;2022-09-28T05:37:19;99968.81;;;23.73;55.99
6942;BME280;3510;43.200;27.920;2022-09-28T05:39:47;99968.25;;;23.89;55.67
6942;BME280;3510;43.200;27.920;2022-09-28T05:42:14;99964.63;;;23.31;56.62
6942;BME280;3510;43.200;27.920;2022-09-28T05:44:41;99977.59;;;23.37;56.25
6942;BME280;3510;43.200;27.920;2022-09-28T05:47:07;99973.28;;;23.81;55.33
6942;BME280;3510;43.200;27.920;2022-09-28T05:49:34;99977.47;;;24.32;54.03
6942;BME280;3510;43.200;27.920;2022-09-28T05:52:01;99976.03;;;23.95;54.39
6942;BME280;3510;43.200;27.920;2022-09-28T05:54:27;99980.34;;;24.48;53.11
6942;BME280;3510;43.200;27.920;2022-09-28T05:56:55;99979.94;;;24.23;53.62
6942;BME280;3510;43.200;27.920;2022-09-28T05:59:22;99979.19;;;24.90;52.21
6942;BME280;3510;43.200;27.920;2022-09-28T06:01:49;99982.41;;;24.17;53.19
6942;BME280;3510;43.200;27.920;2022-09-28T06:04:17;99976.97;;;24.52;52.26
6942;BME280;3510;43.200;27.920;2022-09-28T06:06:45;99976.59;;;24.90;51.93
6942;BME280;3510;43.200;27.920;2022-09-28T06:09:11;99981.19;;;25.12;51.51
6942;BME280;3510;43.200;27.920;2022-09-28T06:11:38;99984.84;;;25.31;50.87
6942;BME280;3510;43.200;27.920;2022-09-28T06:14:06;99987.97;;;25.08;51.29
6942;BME280;3510;43.200;27.920;2022-09-28T06:16:33;99987.16;;;24.44;52.87
6942;BME280;3510;43.200;27.920;2022-09-28T06:19:00;99952.66;;;24.33;52.59
6942;BME280;3510;43.200;27.920;2022-09-28T06:21:34;99961.69;;;24.62;51.39
6942;BME280;3510;43.200;27.920;2022-09-28T06:24:02;99985.81;;;25.42;50.46
6942;BME280;3510;43.200;27.920;2022-09-28T06:26:35;99982.41;;;24.76;51.51
6942;BME280;3510;43.200;27.920;2022-09-28T06:29:02;99967.63;;;24.61;51.85
6942;BME280;3510;43.200;27.920;2022-09-28T06:31:31;99995.06;;;24.59;51.14
6942;BME280;3510;43.200;27.920;2022-09-28T06:33:58;99981.97;;;24.43;51.62
6942;BME280;3510;43.200;27.920;2022-09-28T06:36:27;99966.44;;;25.02;50.63
6942;BME280;3510;43.200;27.920;2022-09-28T06:38:55;99994.41;;;25.43;49.54
6942;BME280;3510;43.200;27.920;2022-09-28T06:41:23;99995.75;;;25.10;50.98
6942;BME280;3510;43.200;27.920;2022-09-28T06:43:50;99999.22;;;25.10;50.99
6942;BME280;3510;43.200;27.920;2022-09-28T06:46:17;99979.44;;;25.90;48.95
6942;BME280;3510;43.200;27.920;2022-09-28T06:48:46;99980.88;;;26.76;47.20
6942;BME280;3510;43.200;27.920;2022-09-28T06:51:14;99982.72;;;27.05;47.27
6942;BME280;3510;43.200;27.920;2022-09-28T06:53:41;99994.88;;;27.27;47.55
6942;BME280;3510;43.200;27.920;2022-09-28T06:56:09;99987.13;;;27.29;47.92
6942;BME280;3510;43.200;27.920;2022-09-28T06:58:36;99989.72;;;27.18;48.27
6942;BME280;3510;43.200;27.920;2022-09-28T07:01:03;99985.41;;;27.19;47.57
6942;BME280;3510;43.200;27.920;2022-09-28T07:03:30;99984.59;;;27.54;46.88
6942;BME280;3510;43.200;27.920;2022-09-28T07:05:58;99988.97;;;28.02;45.34
6942;BME280;3510;43.200;27.920;2022-09-28T07:08:26;99996.72;;;28.40;44.53
6942;BME280;3510;43.200;27.920;2022-09-28T07:10:54;100001.00;;;28.58;44.35
6942;BME280;3510;43.200;27.920;2022-09-28T07:13:21;100008.66;;;28.95;43.65
6942;BME280;3510;43.200;27.920;2022-09-28T07:15:53;100000.19;;;28.22;44.14
6942;BME280;3510;43.200;27.920;2022-09-28T07:18:20;99976.03;;;28.42;43.81
6942;BME280;3510;43.200;27.920;2022-09-28T07:20:48;99999.31;;;28.14;45.01
6942;BME280;3510;43.200;27.920;2022-09-28T07:23:16;100001.06;;;28.11;45.03
6942;BME280;3510;43.200;27.920;2022-09-28T07:25:44;100001.88;;;27.59;46.25
6942;BME280;3510;43.200;27.920;2022-09-28T07:28:12;100003.66;;;27.86;45.41
6942;BME280;3510;43.200;27.920;2022-09-28T07:30:39;99992.44;;;27.83;45.15
6942;BME280;3510;43.200;27.920;2022-09-28T07:33:10;99995.00;;;28.06;44.45
6942;BME280;3510;43.200;27.920;2022-09-28T07:35:38;99996.75;;;28.48;43.44
6942;BME280;3510;43.200;27.920;2022-09-28T07:38:07;99989.78;;;28.62;42.87
6942;BME280;3510;43.200;27.920;2022-09-28T07:40:39;99996.75;;;28.48;43.08
6942;BME280;3510;43.200;27.920;2022-09-28T07:43:23;99989.59;;;29.21;41.90
6942;BME280;3510;43.200;27.920;2022-09-28T07:45:51;100002.72;;;28.65;41.57
6942;BME280;3510;43.200;27.920;2022-09-28T07:48:18;99993.25;;;28.58;42.61
6942;BME280;3510;43.200;27.920;2022-09-28T07:50:46;99999.34;;;27.90;43.42
6942;BME280;3510;43.200;27.920;2022-09-28T07:53:16;99988.88;;;28.69;42.67
6942;BME280;3510;43.200;27.920;2022-09-28T07:55:49;99982.09;;;28.04;42.57
6942;BME280;3510;43.200;27.920;2022-09-28T07:58:21;99984.63;;;28.35;42.63
6942;BME280;3510;43.200;27.920;2022-09-28T08:00:49;99985.53;;;28.38;41.50
6942;BME280;3510;43.200;27.920;2022-09-28T08:03:16;99983.72;;;28.69;41.05
6942;BME280;3510;43.200;27.920;2022-09-28T08:05:43;99988.00;;;28.74;40.49
6942;BME280;3510;43.200;27.920;2022-09-28T08:08:11;99977.56;;;28.92;40.28
6942;BME280;3510;43.200;27.920;2022-09-28T08:10:41;99979.09;;;29.42;40.10
6942;BME280;3510;43.200;27.920;2022-09-28T08:13:09;99985.47;;;30.13;39.61
6942;BME280;3510;43.200;27.920;2022-09-28T08:15:36;99988.72;;;30.42;38.47
6942;BME280;3510;43.200;27.920;2022-09-28T08:18:04;99984.09;;;29.70;37.85
6942;BME280;3510;43.200;27.920;2022-09-28T08:20:31;99972.06;;;29.62;38.66
6942;BME280;3510;43.200;27.920;2022-09-28T08:23:15;99979.00;;;29.51;38.87
6942;BME280;3510;43.200;27.920;2022-09-28T08:25:45;99964.13;;;29.85;38.89
6942;BME280;3510;43.200;27.920;2022-09-28T08:28:15;99960.25;;;29.15;39.05
6942;BME280;3510;43.200;27.920;2022-09-28T08:30:42;99958.59;;;28.93;36.08
6942;BME280;3510;43.200;27.920;2022-09-28T08:33:10;99972.94;;;29.55;37.37
6942;BME280;3510;43.200;27.920;2022-09-28T08:35:37;99967.09;;;29.27;36.75
6942;BME280;3510;43.200;27.920;2022-09-28T08:38:06;99978.84;;;29.77;36.25
6942;BME280;3510;43.200;27.920;2022-09-28T08:40:41;99981.31;;;29.96;34.82
6942;BME280;3510;43.200;27.920;2022-09-28T08:43:26;99972.38;;;30.29;34.36
6942;BME280;3510;43.200;27.920;2022-09-28T08:45:58;99987.19;;;30.16;34.08
6942;BME280;3510;43.200;27.920;2022-09-28T08:48:31;99988.78;;;30.32;33.44
6942;BME280;3510;43.200;27.920;2022-09-28T08:51:16;99987.25;;;30.07;33.33
6942;BME280;3510;43.200;27.920;2022-09-28T08:53:51;99990.22;;;30.61;33.39
6942;BME280;3510;43.200;27.920;2022-09-28T08:56:28;99989.03;;;30.05;34.13
6942;BME280;3510;43.200;27.920;2022-09-28T08:58:59;99962.00;;;30.26;33.75
6942;BME280;3510;43.200;27.920;2022-09-28T09:01:33;99980.63;;;30.68;32.17
6942;BME280;3510;43.200;27.920;2022-09-28T09:04:03;99975.44;;;30.68;32.39
6942;BME280;3510;43.200;27.920;2022-09-28T09:06:38;99975.94;;;30.16;33.03
6942;BME280;3510;43.200;27.920;2022-09-28T09:09:17;99980.78;;;31.25;32.05
6942;BME280;3510;43.200;27.920;2022-09-28T09:11:54;99970.38;;;31.25;31.53
6942;BME280;3510;43.200;27.920;2022-09-28T09:17:38;99988.69;;;31.79;30.06
6942;BME280;3510;43.200;27.920;2022-09-28T09:20:16;99992.91;;;31.26;31.44
6942;BME280;3510;43.200;27.920;2022-09-28T09:22:54;99990.53;;;30.32;32.24
6942;BME280;3510;43.200;27.920;2022-09-28T09:25:26;99986.09;;;30.40;32.19
6942;BME280;3510;43.200;27.920;2022-09-28T09:28:19;99983.44;;;30.49;32.75
6942;BME280;3510;43.200;27.920;2022-09-28T09:31:05;99987.09;;;30.30;32.90
6942;BME280;3510;43.200;27.920;2022-09-28T09:36:59;99975.28;;;30.83;31.41
6942;BME280;3510;43.200;27.920;2022-09-28T09:39:37;99969.94;;;30.92;30.67
6942;BME280;3510;43.200;27.920;2022-09-28T09:42:20;99971.16;;;31.35;28.06
6942;BME280;3510;43.200;27.920;2022-09-28T09:45:23;99971.38;;;31.16;29.39
6942;BME280;3510;43.200;27.920;2022-09-28T09:47:57;99982.91;;;31.60;27.89
6942;BME280;3510;43.200;27.920;2022-09-28T09:50:29;99971.59;;;31.01;27.84
6942;BME280;3510;43.200;27.920;2022-09-28T09:53:04;99973.22;;;31.08;28.00
6942;BME280;3510;43.200;27.920;2022-09-28T09:55:41;99994.59;;;31.30;28.33
6942;BME280;3510;43.200;27.920;2022-09-28T09:58:14;99975.91;;;31.02;28.46
6942;BME280;3510;43.200;27.920;2022-09-28T10:00:45;99982.19;;;30.84;28.79
6942;BME280;3510;43.200;27.920;2022-09-28T10:03:20;99987.47;;;32.00;26.83
6942;BME280;3510;43.200;27.920;2022-09-28T10:05:59;99987.22;;;31.61;27.81
6942;BME280;3510;43.200;27.920;2022-09-28T10:08:34;99987.97;;;31.71;27.51
6942;BME280;3510;43.200;27.920;2022-09-28T10:11:07;99990.44;;;31.77;26.39
6942;BME280;3510;43.200;27.920;2022-09-28T10:13:37;99985.63;;;32.99;25.49
6942;BME280;3510;43.200;27.920;2022-09-28T10:16:05;99984.66;;;32.14;25.28
6942;BME280;3510;43.200;27.920;2022-09-28T10:18:33;99978.75;;;32.53;24.74
6942;BME280;3510;43.200;27.920;2022-09-28T10:21:01;99971.50;;;32.68;25.13
6942;BME280;3510;43.200;27.920;2022-09-28T10:23:31;99976.53;;;31.79;24.87
6942;BME280;3510;43.200;27.920;2022-09-28T10:26:04;99986.78;;;31.90;25.00
6942;BME280;3510;43.200;27.920;2022-09-28T10:28:38;99979.66;;;32.01;25.43
6942;BME280;3510;43.200;27.920;2022-09-28T10:31:36;99986.19;;;32.72;23.59
6942;BME280;3510;43.200;27.920;2022-09-28T10:34:05;99988.25;;;32.07;23.80
6942;BME280;3510;43.200;27.920;2022-09-28T10:36:43;99976.06;;;32.07;23.03
6942;BME280;3510;43.200;27.920;2022-09-28T10:39:24;99979.34;;;32.20;23.47
6942;BME280;3510;43.200;27.920;2022-09-28T10:41:53;99978.47;;;32.19;23.42
6942;BME280;3510;43.200;27.920;2022-09-28T10:44:21;99973.47;;;32.55;23.27
6942;BME280;3510;43.200;27.920;2022-09-28T10:46:55;99966.78;;;32.43;22.58
6942;BME280;3510;43.200;27.920;2022-09-28T10:49:24;99960.56;;;32.50;22.76
6942;BME280;3510;43.200;27.920;2022-09-28T10:51:52;99962.97;;;32.13;23.30
6942;BME280;3510;43.200;27.920;2022-09-28T10:54:23;99960.72;;;32.86;23.11
6942;BME280;3510;43.200;27.920;2022-09-28T10:56:51;99963.22;;;32.47;23.28
6942;BME280;3510;43.200;27.920;2022-09-28T10:59:24;99955.69;;;32.31;23.07
6942;BME280;3510;43.200;27.920;2022-09-28T11:02:06;99962.75;;;32.24;23.23
6942;BME280;3510;43.200;27.920;2022-09-28T11:04:40;99955.13;;;32.61;22.97
6942;BME280;3510;43.200;27.920;2022-09-28T11:07:15;99964.50;;;32.71;22.29
6942;BME280;3510;43.200;27.920;2022-09-28T11:09:47;99956.41;;;32.39;22.53
6942;BME280;3510;43.200;27.920;2022-09-28T11:12:17;99948.03;;;33.10;22.21
6942;BME280;3510;43.200;27.920;2022-09-28T11:14:46;99953.38;;;33.42;22.12
6942;BME280;3510;43.200;27.920;2022-09-28T11:17:25;99957.09;;;34.05;21.27
6942;BME280;3510;43.200;27.920;2022-09-28T11:19:52;99938.81;;;33.34;21.86
6942;BME280;3510;43.200;27.920;2022-09-28T11:22:25;99948.03;;;33.84;21.63
6942;BME280;3510;43.200;27.920;2022-09-28T11:25:13;99944.28;;;33.23;22.16
6942;BME280;3510;43.200;27.920;2022-09-28T11:27:55;99939.56;;;33.37;21.74
6942;BME280;3510;43.200;27.920;2022-09-28T11:30:24;99943.06;;;33.00;22.30
6942;BME280;3510;43.200;27.920;2022-09-28T11:32:55;99934.00;;;32.75;22.56
6942;BME280;3510;43.200;27.920;2022-09-28T11:35:28;99943.81;;;32.62;22.94
6942;BME280;3510;43.200;27.920;2022-09-28T11:38:09;99941.50;;;32.90;23.58
6942;BME280;3510;43.200;27.920;2022-09-28T11:40:49;99935.50;;;32.85;22.70
6942;BME280;3510;43.200;27.920;2022-09-28T11:43:44;99940.91;;;33.57;22.22
6942;BME280;3510;43.200;27.920;2022-09-28T11:46:22;99933.47;;;33.38;22.00
6942;BME280;3510;43.200;27.920;2022-09-28T11:48:54;99938.84;;;33.32;22.34
6942;BME280;3510;43.200;27.920;2022-09-28T11:51:26;99938.28;;;33.18;22.39
6942;BME280;3510;43.200;27.920;2022-09-28T11:54:04;99925.84;;;33.31;22.77
6942;BME280;3510;43.200;27.920;2022-09-28T11:56:42;99928.75;;;33.17;22.44
6942;BME280;3510;43.200;27.920;2022-09-28T11:59:14;99936.16;;;34.07;22.12
6942;BME280;3510;43.200;27.920;2022-09-28T12:01:46;99933.28;;;33.83;22.27
6942;BME280;3510;43.200;27.920;2022-09-28T12:04:19;99938.81;;;34.05;21.75
6942;BME280;3510;43.200;27.920;2022-09-28T12:06:50;99920.25;;;33.46;22.39
6942;BME280;3510;43.200;27.920;2022-09-28T12:09:35;99944.50;;;33.53;20.80
6942;BME280;3510;43.200;27.920;2022-09-28T12:12:36;99938.19;;;34.28;21.01
6942;BME280;3510;43.200;27.920;2022-09-28T12:15:13;99945.97;;;33.99;21.01
6942;BME280;3510;43.200;27.920;2022-09-28T12:17:44;99941.09;;;34.49;20.77
6942;BME280;3510;43.200;27.920;2022-09-28T12:20:19;99912.03;;;34.61;20.01
6942;BME280;3510;43.200;27.920;2022-09-28T12:22:54;99940.09;;;34.23;20.83
6942;BME280;3510;43.200;27.920;2022-09-28T12:25:28;99932.28;;;33.87;21.25
6942;BME280;3510;43.200;27.920;2022-09-28T12:28:02;99936.50;;;34.27;20.32
6942;BME280;3510;43.200;27.920;2022-09-28T12:30:34;99932.72;;;34.68;20.74
6942;BME280;3510;43.200;27.920;2022-09-28T12:33:07;99943.16;;;35.00;20.83
6942;BME280;3510;43.200;27.920;2022-09-28T12:35:48;99918.38;;;35.11;25.76
6942;BME280;3510;43.200;27.920;2022-09-28T12:38:36;99954.31;;;35.34;27.17
6942;BME280;3510;43.200;27.920;2022-09-28T12:41:13;99950.00;;;33.76;29.82
6942;BME280;3510;43.200;27.920;2022-09-28T12:44:05;99950.16;;;33.31;31.31
6942;BME280;3510;43.200;27.920;2022-09-28T12:46:46;99945.97;;;32.42;34.31
6942;BME280;3510;43.200;27.920;2022-09-28T12:49:42;99945.59;;;31.01;38.44
6942;BME280;3510;43.200;27.920;2022-09-28T12:52:22;99946.03;;;30.62;38.49
6942;BME280;3510;43.200;27.920;2022-09-28T12:55:10;99933.97;;;30.58;38.78
6942;BME280;3510;43.200;27.920;2022-09-28T12:57:55;99940.72;;;30.78;38.61
6942;BME280;3510;43.200;27.920;2022-09-28T13:00:32;99938.28;;;31.30;37.52
6942;BME280;3510;43.200;27.920;2022-09-28T13:03:13;99934.28;;;32.15;36.48
6942;BME280;3510;43.200;27.920;2022-09-28T13:06:14;99947.16;;;32.69;35.82
6942;BME280;3510;43.200;27.920;2022-09-28T13:08:55;99946.88;;;32.81;35.04
6942;BME280;3510;43.200;27.920;2022-09-28T13:11:32;99939.72;;;32.94;35.52
6942;BME280;3510;43.200;27.920;2022-09-28T13:14:18;99950.78;;;32.62;36.17
6942;BME280;3510;43.200;27.920;2022-09-28T13:16:54;99938.63;;;32.16;37.51
6942;BME280;3510;43.200;27.920;2022-09-28T13:19:29;99944.22;;;32.42;37.04
6942;BME280;3510;43.200;27.920;2022-09-28T13:22:16;99952.63;;;32.09;38.30
6942;BME280;3510;43.200;27.920;2022-09-28T13:24:47;99958.13;;;31.36;39.53
6942;BME280;3510;43.200;27.920;2022-09-28T13:27:19;99946.22;;;31.17;40.73
6942;BME280;3510;43.200;27.920;2022-09-28T13:29:50;99954.78;;;30.57;42.15
6942;BME280;3510;43.200;27.920;2022-09-28T13:32:20;99959.81;;;31.39;41.11
6942;BME280;3510;43.200;27.920;2022-09-28T13:34:49;99969.72;;;30.35;43.55
6942;BME280;3510;43.200;27.920;2022-09-28T13:37:22;99969.44;;;30.61;42.86
6942;BME280;3510;43.200;27.920;2022-09-28T13:39:51;99965.56;;;30.20;44.21
6942;BME280;3510;43.200;27.920;2022-09-28T13:42:31;99959.41;;;30.29;43.89